createdAt,value
2023-05-14T00:00:24.263Z,2.40
2023-05-14T00:01:24.002Z,2.20
2023-05-14T00:02:24.072Z,2.20
2023-05-14T00:03:24.036Z,2.20
2023-05-14T00:04:23.999Z,2.00
2023-05-14T00:05:23.928Z,2.20
2023-05-14T00:06:23.970Z,2.10
2023-05-14T00:07:23.926Z,2.60
2023-05-14T00:08:23.900Z,2.30
2023-05-14T00:09:23.910Z,2.30
2023-05-14T00:10:24.126Z,2.30
2023-05-14T00:11:23.886Z,2.20
2023-05-14T00:12:23.894Z,2.10
2023-05-14T00:13:23.849Z,2.60
2023-05-14T00:14:23.837Z,2.10
2023-05-14T00:15:23.845Z,2.30
2023-05-14T00:16:23.859Z,2.30
2023-05-14T00:17:23.821Z,2.30
2023-05-14T00:18:23.813Z,2.30
2023-05-14T00:19:23.792Z,2.70
2023-05-14T00:20:23.982Z,2.50
2023-05-14T00:21:23.797Z,2.40
2023-05-14T00:22:23.756Z,2.50
2023-05-14T00:23:23.744Z,2.40
2023-05-14T00:24:23.801Z,2.10
2023-05-14T00:25:23.741Z,2.20
2023-05-14T00:26:23.721Z,2.40
2023-05-14T00:27:23.764Z,2.40
2023-05-14T00:28:23.692Z,2.10
2023-05-14T00:29:23.679Z,2.40
2023-05-14T00:30:23.940Z,2.40
2023-05-14T00:31:23.725Z,2.70
2023-05-14T00:32:23.674Z,2.70
2023-05-14T00:33:23.650Z,2.30
2023-05-14T00:34:23.667Z,2.50
2023-05-14T00:35:23.632Z,2.30
2023-05-14T00:36:23.625Z,2.30
2023-05-14T00:37:23.596Z,2.80
2023-05-14T00:38:23.612Z,2.60
2023-05-14T00:39:23.613Z,2.50
2023-05-14T00:40:24.367Z,2.50
2023-05-14T00:41:23.560Z,2.60
2023-05-14T00:42:23.557Z,2.40
2023-05-14T00:43:23.540Z,2.70
2023-05-14T00:44:23.560Z,2.70
2023-05-14T00:45:23.511Z,2.50
2023-05-14T00:46:23.535Z,2.80
2023-05-14T00:47:23.525Z,2.50
2023-05-14T00:48:23.512Z,2.50
2023-05-14T00:49:23.485Z,2.50
2023-05-14T00:50:23.833Z,2.70
2023-05-14T00:51:23.455Z,2.40
2023-05-14T00:52:23.447Z,2.50
2023-05-14T00:53:23.456Z,2.50
2023-05-14T00:54:23.424Z,2.60
2023-05-14T00:55:23.446Z,2.70
2023-05-14T00:56:23.480Z,2.60
2023-05-14T00:57:23.410Z,2.90
2023-05-14T00:58:23.400Z,2.60
2023-05-14T00:59:23.373Z,2.90
2023-05-14T01:00:23.652Z,2.60
2023-05-14T01:01:23.393Z,2.70
2023-05-14T01:02:23.437Z,2.60
2023-05-14T01:03:23.491Z,2.60
2023-05-14T01:04:23.336Z,2.50
2023-05-14T01:05:23.305Z,2.50
2023-05-14T01:06:23.299Z,2.70
2023-05-14T01:07:23.300Z,2.70
2023-05-14T01:08:23.315Z,2.80
2023-05-14T01:09:23.272Z,2.40
2023-05-14T01:10:23.451Z,2.70
2023-05-14T01:11:23.245Z,2.60
2023-05-14T01:12:23.252Z,2.60
2023-05-14T01:13:23.239Z,2.90
2023-05-14T01:14:23.232Z,2.60
2023-05-14T01:15:23.244Z,2.80
2023-05-14T01:16:23.244Z,2.70
2023-05-14T01:17:23.205Z,2.80
2023-05-14T01:18:23.184Z,2.70
2023-05-14T01:19:23.156Z,2.60
2023-05-14T01:20:23.430Z,2.40
2023-05-14T01:21:23.156Z,2.80
2023-05-14T01:22:23.137Z,2.20
2023-05-14T01:23:23.144Z,2.50
2023-05-14T01:24:23.123Z,2.60
2023-05-14T01:25:23.118Z,2.70
2023-05-14T01:26:23.124Z,2.60
2023-05-14T01:27:23.078Z,2.40
2023-05-14T01:28:23.072Z,2.80
2023-05-14T01:29:23.110Z,2.70
2023-05-14T01:30:23.319Z,2.80
2023-05-14T01:31:23.066Z,2.50
2023-05-14T01:32:23.064Z,2.90
2023-05-14T01:33:23.013Z,2.60
2023-05-14T01:34:23.017Z,2.40
2023-05-14T01:35:23.019Z,2.80
2023-05-14T01:36:23.017Z,3.00
2023-05-14T01:37:22.985Z,2.90
2023-05-14T01:38:22.980Z,2.60
2023-05-14T01:39:22.970Z,3.00
2023-05-14T01:40:23.166Z,2.80
2023-05-14T01:41:22.935Z,2.60
2023-05-14T01:42:22.924Z,3.10
2023-05-14T01:43:23.009Z,2.70
2023-05-14T01:44:22.948Z,2.90
2023-05-14T01:45:22.908Z,2.50
2023-05-14T01:46:22.905Z,2.40
2023-05-14T01:47:22.901Z,2.60
2023-05-14T01:48:22.875Z,2.80
2023-05-14T01:49:22.865Z,2.70
2023-05-14T01:50:23.031Z,2.80
2023-05-14T01:51:22.824Z,2.80
2023-05-14T01:52:22.826Z,2.60
2023-05-14T01:53:22.812Z,2.80
2023-05-14T01:54:22.833Z,2.90
2023-05-14T01:55:22.793Z,2.90
2023-05-14T01:56:22.776Z,3.00
2023-05-14T01:57:22.774Z,2.60
2023-05-14T01:58:22.798Z,2.60
2023-05-14T01:59:22.741Z,2.90
2023-05-14T02:00:22.872Z,2.50
2023-05-14T02:01:22.767Z,2.50
2023-05-14T02:02:22.729Z,2.70
2023-05-14T02:03:22.736Z,2.60
2023-05-14T02:04:22.772Z,2.80
2023-05-14T02:05:22.677Z,2.80
2023-05-14T02:06:22.676Z,2.70
2023-05-14T02:07:22.680Z,2.70
2023-05-14T02:08:22.677Z,2.60
2023-05-14T02:09:22.636Z,2.60
2023-05-14T02:10:22.906Z,2.70
2023-05-14T02:11:22.636Z,2.30
2023-05-14T02:12:22.639Z,2.50
2023-05-14T02:13:22.598Z,2.70
2023-05-14T02:14:22.592Z,2.70
2023-05-14T02:15:22.623Z,2.80
2023-05-14T02:16:22.625Z,2.50
2023-05-14T02:17:22.577Z,2.40
2023-05-14T02:18:22.577Z,3.10
2023-05-14T02:19:22.533Z,2.70
2023-05-14T02:20:22.831Z,2.50
2023-05-14T02:21:22.535Z,2.70
2023-05-14T02:22:22.521Z,2.80
2023-05-14T02:23:34.067Z,2.50
2023-05-14T02:24:22.497Z,2.70
2023-05-14T02:25:22.475Z,2.80
2023-05-14T02:26:22.481Z,2.70
2023-05-14T02:27:22.458Z,3.00
2023-05-14T02:28:22.485Z,2.80
2023-05-14T02:29:22.432Z,2.80
2023-05-14T02:30:22.576Z,3.00
2023-05-14T02:31:22.465Z,3.30
2023-05-14T02:32:22.523Z,3.00
2023-05-14T02:33:22.548Z,2.70
2023-05-14T02:34:23.221Z,2.70
2023-05-14T02:35:22.423Z,3.00
2023-05-14T02:36:22.383Z,3.30
2023-05-14T02:37:22.417Z,3.10
2023-05-14T02:38:22.405Z,3.10
2023-05-14T02:39:22.385Z,2.90
2023-05-14T02:40:22.486Z,3.00
2023-05-14T02:41:22.328Z,3.00
2023-05-14T02:42:22.303Z,3.40
2023-05-14T02:43:22.297Z,3.00
2023-05-14T02:44:22.305Z,2.90
2023-05-14T02:45:22.295Z,3.30
2023-05-14T02:46:22.322Z,3.20
2023-05-14T02:47:22.293Z,3.40
2023-05-14T02:48:22.244Z,3.00
2023-05-14T02:49:22.243Z,3.10
2023-05-14T02:50:22.386Z,3.20
2023-05-14T02:51:22.208Z,3.00
2023-05-14T02:52:22.213Z,3.30
2023-05-14T02:53:22.204Z,3.10
2023-05-14T02:54:22.203Z,2.90
2023-05-14T02:55:22.172Z,3.20
2023-05-14T02:56:22.185Z,3.20
2023-05-14T02:57:22.151Z,3.30
2023-05-14T02:58:25.478Z,3.20
2023-05-14T02:59:22.164Z,3.40
2023-05-14T03:00:22.274Z,3.20
2023-05-14T03:01:22.159Z,3.30
2023-05-14T03:02:22.148Z,3.00
2023-05-14T03:03:22.140Z,3.10
2023-05-14T03:04:22.099Z,3.10
2023-05-14T03:05:22.079Z,3.40
2023-05-14T03:06:22.091Z,3.00
2023-05-14T03:07:22.050Z,3.30
2023-05-14T03:08:22.058Z,3.60
2023-05-14T03:09:22.040Z,3.00
2023-05-14T03:10:22.264Z,3.80
2023-05-14T03:11:22.006Z,2.90
2023-05-14T03:12:22.008Z,3.20
2023-05-14T03:13:21.957Z,3.20
2023-05-14T03:14:21.928Z,3.50
2023-05-14T03:15:21.915Z,3.40
2023-05-14T03:16:21.925Z,3.00
2023-05-14T03:17:21.932Z,3.60
2023-05-14T03:18:21.884Z,3.50
2023-05-14T03:19:21.872Z,3.60
2023-05-14T03:20:22.022Z,3.70
2023-05-14T03:21:21.870Z,3.60
2023-05-14T03:22:21.860Z,3.30
2023-05-14T03:23:21.828Z,3.40
2023-05-14T03:24:21.823Z,3.60
2023-05-14T03:25:21.824Z,3.40
2023-05-14T03:26:21.818Z,3.30
2023-05-14T03:27:21.811Z,3.00
2023-05-14T03:28:21.784Z,3.50
2023-05-14T03:29:21.766Z,3.50
2023-05-14T03:30:22.166Z,3.30
2023-05-14T03:31:21.874Z,3.20
2023-05-14T03:32:21.792Z,3.30
2023-05-14T03:33:21.721Z,3.40
2023-05-14T03:34:21.744Z,3.60
2023-05-14T03:35:21.710Z,3.30
2023-05-14T03:36:21.732Z,3.50
2023-05-14T03:37:21.683Z,3.60
2023-05-14T03:38:21.687Z,3.50
2023-05-14T03:39:21.681Z,3.40
2023-05-14T03:40:21.888Z,3.00
2023-05-14T03:41:21.673Z,3.40
2023-05-14T03:42:21.638Z,3.50
2023-05-14T03:43:21.646Z,3.30
2023-05-14T03:44:21.609Z,3.10
2023-05-14T03:45:21.609Z,3.30
2023-05-14T03:46:21.626Z,3.00
2023-05-14T03:47:21.576Z,3.30
2023-05-14T03:48:21.730Z,3.40
2023-05-14T03:49:27.579Z,3.40
2023-05-14T03:50:21.726Z,3.10
2023-05-14T03:51:21.539Z,3.30
2023-05-14T03:52:21.537Z,3.40
2023-05-14T03:53:21.516Z,3.30
2023-05-14T03:54:21.552Z,3.60
2023-05-14T03:55:21.529Z,3.70
2023-05-14T03:56:21.494Z,3.20
2023-05-14T03:57:21.492Z,3.50
2023-05-14T03:58:21.526Z,3.20
2023-05-14T03:59:21.480Z,3.40
2023-05-14T04:00:21.858Z,3.40
2023-05-14T04:01:21.447Z,3.40
2023-05-14T04:02:21.497Z,3.10
2023-05-14T04:03:21.596Z,3.30
2023-05-14T04:04:21.533Z,3.10
2023-05-14T04:05:21.404Z,3.10
2023-05-14T04:06:21.398Z,3.50
2023-05-14T04:07:21.382Z,4.00
2023-05-14T04:08:21.421Z,3.60
2023-05-14T04:09:21.419Z,3.50
2023-05-14T04:10:21.501Z,3.50
2023-05-14T04:11:21.372Z,2.90
2023-05-14T04:12:21.342Z,3.40
2023-05-14T04:13:21.359Z,3.30
2023-05-14T04:14:21.342Z,3.60
2023-05-14T04:15:21.312Z,3.30
2023-05-14T04:16:21.325Z,3.00
2023-05-14T04:17:21.297Z,3.20
2023-05-14T04:18:21.287Z,3.20
2023-05-14T04:19:21.253Z,3.40
2023-05-14T04:20:21.331Z,3.30
2023-05-14T04:21:21.236Z,3.60
2023-05-14T04:22:21.299Z,2.90
2023-05-14T04:23:21.236Z,3.40
2023-05-14T04:24:21.220Z,3.30
2023-05-14T04:25:21.195Z,3.10
2023-05-14T04:26:21.187Z,3.40
2023-05-14T04:27:21.208Z,3.20
2023-05-14T04:28:21.174Z,3.30
2023-05-14T04:29:21.175Z,3.20
2023-05-14T04:30:21.474Z,3.40
2023-05-14T04:31:21.198Z,3.60
2023-05-14T04:32:21.169Z,3.00
2023-05-14T04:33:21.126Z,3.30
2023-05-14T04:34:21.097Z,3.10
2023-05-14T04:35:23.297Z,3.30
2023-05-14T04:36:21.094Z,3.20
2023-05-14T04:37:21.087Z,3.20
2023-05-14T04:38:21.056Z,3.50
2023-05-14T04:39:21.051Z,3.30
2023-05-14T04:40:21.102Z,3.20
2023-05-14T04:41:21.038Z,3.40
2023-05-14T04:42:21.037Z,3.10
2023-05-14T04:43:21.041Z,3.40
2023-05-14T04:44:20.998Z,5.00
2023-05-14T04:45:21.030Z,3.70
2023-05-14T04:46:21.038Z,4.60
2023-05-14T04:47:21.122Z,3.90
2023-05-14T04:48:20.955Z,3.20
2023-05-14T04:49:20.958Z,3.70
2023-05-14T04:50:21.061Z,3.20
2023-05-14T04:51:20.920Z,3.50
2023-05-14T04:52:20.911Z,3.60
2023-05-14T04:53:20.906Z,3.40
2023-05-14T04:54:20.953Z,3.90
2023-05-14T04:55:20.906Z,3.60
2023-05-14T04:56:20.918Z,5.50
2023-05-14T04:57:20.870Z,5.80
2023-05-14T04:58:20.859Z,3.90
2023-05-14T04:59:20.865Z,3.90
2023-05-14T05:00:20.870Z,4.30
2023-05-14T05:01:20.902Z,3.90
2023-05-14T05:02:20.812Z,3.80
2023-05-14T05:03:20.970Z,3.20
2023-05-14T05:04:20.844Z,4.10
2023-05-14T05:05:20.861Z,4.60
2023-05-14T05:06:20.851Z,2.90
2023-05-14T05:07:20.832Z,3.60
2023-05-14T05:08:20.822Z,3.20
2023-05-14T05:09:20.757Z,3.10
2023-05-14T05:10:20.773Z,3.70
2023-05-14T05:11:20.735Z,3.50
2023-05-14T05:12:20.707Z,3.30
2023-05-14T05:13:20.743Z,3.50
2023-05-14T05:14:20.787Z,3.80
2023-05-14T05:15:20.691Z,3.40
2023-05-14T05:16:20.743Z,3.30
2023-05-14T05:17:20.682Z,3.70
2023-05-14T05:18:20.671Z,4.10
2023-05-14T05:19:26.455Z,3.70
2023-05-14T05:20:20.737Z,3.70
2023-05-14T05:21:20.632Z,3.70
2023-05-14T05:22:20.631Z,3.40
2023-05-14T05:23:20.621Z,3.40
2023-05-14T05:24:20.620Z,3.40
2023-05-14T05:25:20.583Z,3.70
2023-05-14T05:26:20.601Z,3.40
2023-05-14T05:27:20.573Z,3.70
2023-05-14T05:28:20.542Z,3.60
2023-05-14T05:29:20.538Z,3.60
2023-05-14T05:30:20.526Z,3.50
2023-05-14T05:31:20.546Z,3.40
2023-05-14T05:32:20.530Z,3.20
2023-05-14T05:33:20.500Z,3.80
2023-05-14T05:34:20.487Z,3.90
2023-05-14T05:35:20.480Z,3.70
2023-05-14T05:36:20.482Z,3.80
2023-05-14T05:37:20.480Z,3.70
2023-05-14T05:38:20.453Z,3.70
2023-05-14T05:39:20.442Z,3.80
2023-05-14T05:40:20.474Z,3.80
2023-05-14T05:41:20.426Z,3.80
2023-05-14T05:42:20.402Z,3.40
2023-05-14T05:43:20.481Z,4.10
2023-05-14T05:44:20.382Z,3.50
2023-05-14T05:45:20.380Z,3.50
2023-05-14T05:46:20.407Z,3.80
2023-05-14T05:47:20.379Z,3.80
2023-05-14T05:48:20.343Z,3.50
2023-05-14T05:49:20.337Z,4.00
2023-05-14T05:50:20.354Z,4.00
2023-05-14T05:51:20.320Z,3.30
2023-05-14T05:52:20.305Z,3.60
2023-05-14T05:53:20.291Z,3.80
2023-05-14T05:54:20.274Z,3.50
2023-05-14T05:55:20.347Z,3.80
2023-05-14T05:56:20.253Z,3.80
2023-05-14T05:57:20.252Z,3.50
2023-05-14T05:58:20.254Z,3.80
2023-05-14T05:59:20.228Z,3.50
2023-05-14T06:00:20.224Z,3.20
2023-05-14T06:01:20.210Z,3.40
2023-05-14T06:02:20.318Z,3.40
2023-05-14T06:03:20.225Z,3.40
2023-05-14T06:04:20.211Z,3.30
2023-05-14T06:05:20.231Z,3.30
2023-05-14T06:06:20.160Z,3.50
2023-05-14T06:07:20.153Z,3.30
2023-05-14T06:08:20.132Z,3.60
2023-05-14T06:09:20.136Z,3.50
2023-05-14T06:10:20.120Z,3.70
2023-05-14T06:11:20.113Z,3.20
2023-05-14T06:12:20.104Z,3.50
2023-05-14T06:13:20.123Z,3.90
2023-05-14T06:14:20.089Z,3.40
2023-05-14T06:15:20.070Z,3.30
2023-05-14T06:16:20.133Z,3.50
2023-05-14T06:17:20.090Z,3.80
2023-05-14T06:18:20.053Z,3.30
2023-05-14T06:19:20.107Z,3.60
2023-05-14T06:20:20.007Z,3.80
2023-05-14T06:21:20.006Z,3.40
2023-05-14T06:22:19.981Z,3.70
2023-05-14T06:23:20.024Z,3.00
2023-05-14T06:24:19.967Z,3.40
2023-05-14T06:25:19.966Z,3.10
2023-05-14T06:26:19.948Z,3.30
2023-05-14T06:27:19.969Z,3.70
2023-05-14T06:28:19.938Z,3.50
2023-05-14T06:29:19.929Z,3.60
2023-05-14T06:30:19.956Z,3.50
2023-05-14T06:31:19.924Z,4.20
2023-05-14T06:32:20.136Z,3.30
2023-05-14T06:33:20.701Z,4.90
2023-05-14T06:34:19.878Z,3.90
2023-05-14T06:35:19.886Z,3.40
2023-05-14T06:36:19.842Z,3.10
2023-05-14T06:37:19.846Z,3.80
2023-05-14T06:38:19.828Z,3.30
2023-05-14T06:39:19.828Z,3.30
2023-05-14T06:40:19.806Z,3.40
2023-05-14T06:41:19.811Z,3.60
2023-05-14T06:42:19.799Z,3.20
2023-05-14T06:43:19.788Z,3.30
2023-05-14T06:44:19.805Z,3.20
2023-05-14T06:45:19.766Z,3.20
2023-05-14T06:46:19.757Z,3.60
2023-05-14T06:47:19.740Z,3.20
2023-05-14T06:48:19.842Z,3.00
2023-05-14T06:49:19.717Z,2.90
2023-05-14T06:50:19.707Z,3.00
2023-05-14T06:51:19.728Z,3.10
2023-05-14T06:52:19.683Z,3.20
2023-05-14T06:53:19.693Z,3.30
2023-05-14T06:54:19.668Z,3.10
2023-05-14T06:55:19.697Z,3.10
2023-05-14T06:56:19.678Z,3.40
2023-05-14T06:57:19.659Z,3.20
2023-05-14T06:58:19.664Z,3.40
2023-05-14T06:59:19.612Z,3.10
2023-05-14T07:00:19.621Z,3.00
2023-05-14T07:01:19.741Z,3.30
2023-05-14T07:02:19.573Z,3.40
2023-05-14T07:03:19.572Z,3.20
2023-05-14T07:04:19.642Z,3.20
2023-05-14T07:05:19.590Z,3.20
2023-05-14T07:06:19.592Z,3.80
2023-05-14T07:07:19.541Z,3.40
2023-05-14T07:08:19.512Z,3.40
2023-05-14T07:09:19.529Z,3.30
2023-05-14T07:10:19.512Z,2.90
2023-05-14T07:11:19.490Z,3.30
2023-05-14T07:12:19.466Z,3.30
2023-05-14T07:13:19.480Z,3.40
2023-05-14T07:14:19.460Z,3.50
2023-05-14T07:15:19.452Z,3.10
2023-05-14T07:16:19.434Z,3.30
2023-05-14T07:17:19.453Z,2.90
2023-05-14T07:18:19.404Z,3.20
2023-05-14T07:19:19.517Z,3.30
2023-05-14T07:20:19.395Z,3.20
2023-05-14T07:21:19.384Z,3.40
2023-05-14T07:22:19.379Z,3.00
2023-05-14T07:23:20.099Z,3.30
2023-05-14T07:24:19.393Z,3.40
2023-05-14T07:25:19.344Z,3.60
2023-05-14T07:26:19.329Z,3.20
2023-05-14T07:27:19.329Z,3.20
2023-05-14T07:28:19.337Z,3.50
2023-05-14T07:29:19.297Z,3.70
2023-05-14T07:30:19.366Z,3.10
2023-05-14T07:31:19.305Z,3.30
2023-05-14T07:32:19.296Z,3.10
2023-05-14T07:33:19.335Z,3.20
2023-05-14T07:34:19.269Z,3.20
2023-05-14T07:35:19.268Z,3.30
2023-05-14T07:36:19.229Z,3.20
2023-05-14T07:37:19.234Z,3.20
2023-05-14T07:38:19.227Z,3.40
2023-05-14T07:39:19.200Z,5.40
2023-05-14T07:40:19.196Z,4.20
2023-05-14T07:41:19.180Z,5.40
2023-05-14T07:42:28.301Z,3.50
2023-05-14T07:43:19.159Z,3.30
2023-05-14T07:44:19.142Z,3.60
2023-05-14T07:45:19.119Z,3.80
2023-05-14T07:46:19.130Z,3.10
2023-05-14T07:47:19.152Z,3.30
2023-05-14T07:48:19.110Z,3.10
2023-05-14T07:49:19.097Z,3.40
2023-05-14T07:50:19.105Z,3.50
2023-05-14T07:51:19.120Z,3.40
2023-05-14T07:52:19.222Z,3.10
2023-05-14T07:53:19.064Z,3.30
2023-05-14T07:54:19.058Z,3.10
2023-05-14T07:55:19.053Z,3.50
2023-05-14T07:56:19.028Z,3.50
2023-05-14T07:57:19.044Z,3.00
2023-05-14T07:58:19.094Z,3.20
2023-05-14T07:59:19.054Z,3.50
2023-05-14T08:00:18.990Z,3.30
2023-05-14T08:01:19.108Z,3.30
2023-05-14T08:02:19.108Z,3.40
2023-05-14T08:03:18.991Z,3.30
2023-05-14T08:04:19.013Z,3.40
2023-05-14T08:05:18.960Z,3.10
2023-05-14T08:06:18.927Z,3.60
2023-05-14T08:07:18.962Z,3.30
2023-05-14T08:08:18.909Z,3.50
2023-05-14T08:09:18.914Z,3.30
2023-05-14T08:10:18.876Z,3.60
2023-05-14T08:11:19.008Z,3.40
2023-05-14T08:12:18.857Z,3.60
2023-05-14T08:13:19.069Z,3.80
2023-05-14T08:14:18.856Z,3.20
2023-05-14T08:15:18.845Z,3.70
2023-05-14T08:16:18.967Z,3.00
2023-05-14T08:17:18.858Z,3.60
2023-05-14T08:18:18.788Z,3.70
2023-05-14T08:19:19.049Z,3.40
2023-05-14T08:20:18.787Z,3.20
2023-05-14T08:21:18.822Z,3.60
2023-05-14T08:22:18.748Z,3.50
2023-05-14T08:23:18.739Z,3.50
2023-05-14T08:24:18.731Z,3.50
2023-05-14T08:25:18.749Z,3.90
2023-05-14T08:26:18.723Z,3.50
2023-05-14T08:27:18.749Z,3.50
2023-05-14T08:28:18.710Z,3.50
2023-05-14T08:29:18.697Z,3.30
2023-05-14T08:30:18.717Z,3.30
2023-05-14T08:31:18.766Z,3.10
2023-05-14T08:32:23.492Z,3.20
2023-05-14T08:33:18.677Z,3.50
2023-05-14T08:34:18.640Z,3.70
2023-05-14T08:35:18.622Z,3.40
2023-05-14T08:36:18.616Z,3.30
2023-05-14T08:37:18.594Z,3.30
2023-05-14T08:38:18.644Z,3.30
2023-05-14T08:39:18.570Z,3.70
2023-05-14T08:40:18.571Z,3.40
2023-05-14T08:41:18.557Z,3.50
2023-05-14T08:42:18.579Z,3.60
2023-05-14T08:43:18.606Z,3.40
2023-05-14T08:44:18.549Z,3.80
2023-05-14T08:45:18.562Z,3.20
2023-05-14T08:46:18.519Z,3.50
2023-05-14T08:47:18.523Z,3.30
2023-05-14T08:48:18.601Z,2.90
2023-05-14T08:49:18.685Z,3.30
2023-05-14T08:50:19.899Z,3.40
2023-05-14T08:51:18.513Z,3.50
2023-05-14T08:52:18.504Z,3.50
2023-05-14T08:53:18.455Z,3.90
2023-05-14T08:54:18.461Z,3.40
2023-05-14T08:55:18.538Z,3.90
2023-05-14T08:56:18.411Z,3.80
2023-05-14T08:57:18.459Z,3.80
2023-05-14T08:58:18.443Z,3.60
2023-05-14T08:59:18.397Z,3.50
2023-05-14T09:00:18.381Z,3.10
2023-05-14T09:01:18.583Z,3.30
2023-05-14T09:02:18.450Z,3.70
2023-05-14T09:03:18.397Z,3.80
2023-05-14T09:04:18.504Z,3.20
2023-05-14T09:05:18.341Z,3.80
2023-05-14T09:06:18.377Z,3.70
2023-05-14T09:07:18.279Z,3.40
2023-05-14T09:08:18.347Z,3.30
2023-05-14T09:09:18.305Z,3.10
2023-05-14T09:10:18.371Z,3.10
2023-05-14T09:11:18.267Z,3.00
2023-05-14T09:12:18.288Z,3.40
2023-05-14T09:13:18.223Z,3.30
2023-05-14T09:14:18.293Z,3.30
2023-05-14T09:15:18.333Z,3.30
2023-05-14T09:16:18.404Z,3.30
2023-05-14T09:17:18.221Z,3.70
2023-05-14T09:18:18.294Z,3.20
2023-05-14T09:19:18.353Z,3.20
2023-05-14T09:20:18.299Z,3.10
2023-05-14T09:21:18.131Z,3.30
2023-05-14T09:22:18.529Z,3.60
2023-05-14T09:23:18.190Z,3.30
2023-05-14T09:24:18.160Z,3.40
2023-05-14T09:25:18.154Z,3.50
2023-05-14T09:26:18.185Z,3.10
2023-05-14T09:27:18.116Z,3.30
2023-05-14T09:28:18.128Z,2.80
2023-05-14T09:29:18.114Z,3.80
2023-05-14T09:30:18.114Z,3.20
2023-05-14T09:31:18.205Z,3.00
2023-05-14T09:32:18.095Z,2.90
2023-05-14T09:33:18.101Z,3.60
2023-05-14T09:34:18.122Z,3.20
2023-05-14T09:35:18.144Z,3.40
2023-05-14T09:36:18.122Z,3.30
2023-05-14T09:37:17.972Z,3.40
2023-05-14T09:38:18.047Z,3.10
2023-05-14T09:39:18.062Z,3.20
2023-05-14T09:40:17.982Z,3.50
2023-05-14T09:41:17.943Z,3.00
2023-05-14T09:42:17.936Z,3.20
2023-05-14T09:43:17.937Z,3.00
2023-05-14T09:44:18.065Z,3.00
2023-05-14T09:45:17.917Z,3.30
2023-05-14T09:46:17.884Z,3.20
2023-05-14T09:47:17.945Z,3.50
2023-05-14T09:48:17.939Z,2.90
2023-05-14T09:49:17.857Z,3.30
2023-05-14T09:50:17.846Z,3.20
2023-05-14T09:51:17.900Z,3.20
2023-05-14T09:52:17.843Z,2.90
2023-05-14T09:53:17.910Z,2.60
2023-05-14T09:54:17.846Z,2.90
2023-05-14T09:55:17.847Z,2.60
2023-05-14T09:56:18.107Z,2.70
2023-05-14T09:57:17.823Z,2.50
2023-05-14T09:58:17.860Z,2.60
2023-05-14T09:59:17.775Z,2.90
2023-05-14T10:00:17.797Z,3.00
2023-05-14T10:01:18.000Z,3.30
2023-05-14T10:02:17.761Z,3.10
2023-05-14T10:03:19.895Z,3.70
2023-05-14T10:04:17.734Z,3.30
2023-05-14T10:05:17.707Z,3.20
2023-05-14T10:06:17.697Z,3.20
2023-05-14T10:07:17.740Z,3.40
2023-05-14T10:08:17.710Z,3.00
2023-05-14T10:09:17.664Z,3.00
2023-05-14T10:10:17.769Z,3.00
2023-05-14T10:11:17.639Z,2.90
2023-05-14T10:12:17.660Z,3.10
2023-05-14T10:13:17.617Z,3.00
2023-05-14T10:14:17.638Z,3.50
2023-05-14T10:15:17.659Z,3.20
2023-05-14T10:16:17.668Z,2.70
2023-05-14T10:17:17.647Z,3.10
2023-05-14T10:18:17.557Z,3.40
2023-05-14T10:19:17.900Z,3.00
2023-05-14T10:20:17.892Z,2.90
2023-05-14T10:21:17.745Z,2.80
2023-05-14T10:22:17.511Z,2.70
2023-05-14T10:23:17.557Z,2.40
2023-05-14T10:24:17.508Z,2.60
2023-05-14T10:25:17.605Z,2.20
2023-05-14T10:26:17.486Z,2.20
2023-05-14T10:27:17.474Z,2.20
2023-05-14T10:28:17.483Z,2.20
2023-05-14T10:29:17.522Z,1.90
2023-05-14T10:30:17.416Z,1.70
2023-05-14T10:31:17.505Z,2.20
2023-05-14T10:32:17.408Z,2.10
2023-05-14T10:33:17.395Z,2.30
2023-05-14T10:34:17.398Z,2.20
2023-05-14T10:35:17.367Z,2.00
2023-05-14T10:36:17.359Z,2.40
2023-05-14T10:37:17.375Z,2.10
2023-05-14T10:38:17.359Z,2.40
2023-05-14T10:39:17.322Z,2.20
2023-05-14T10:40:17.311Z,2.30
2023-05-14T10:41:17.293Z,2.20
2023-05-14T10:42:17.293Z,1.90
2023-05-14T10:43:17.330Z,2.20
2023-05-14T10:44:17.272Z,2.40
2023-05-14T10:45:17.258Z,2.20
2023-05-14T10:46:17.282Z,2.00
2023-05-14T10:47:17.260Z,2.30
2023-05-14T10:48:17.312Z,2.40
2023-05-14T10:49:25.333Z,2.50
2023-05-14T10:50:17.232Z,2.70
2023-05-14T10:51:17.235Z,2.80
2023-05-14T10:52:17.219Z,2.20
2023-05-14T10:53:17.178Z,2.20
2023-05-14T10:54:17.264Z,2.30
2023-05-14T10:55:17.175Z,2.40
2023-05-14T10:56:17.148Z,2.50
2023-05-14T10:57:17.153Z,2.20
2023-05-14T10:58:17.128Z,2.00
2023-05-14T10:59:17.132Z,2.40
2023-05-14T11:00:17.126Z,2.40
2023-05-14T11:01:17.112Z,2.20
2023-05-14T11:02:17.142Z,2.60
2023-05-14T11:03:17.135Z,2.50
2023-05-14T11:04:17.193Z,2.90
2023-05-14T11:05:17.419Z,2.90
2023-05-14T11:06:17.090Z,2.80
2023-05-14T11:07:17.066Z,2.90
2023-05-14T11:08:17.045Z,2.80
2023-05-14T11:09:17.009Z,3.40
2023-05-14T11:10:17.065Z,3.30
2023-05-14T11:11:17.020Z,3.20
2023-05-14T11:12:17.005Z,3.00
2023-05-14T11:13:16.995Z,2.90
2023-05-14T11:14:16.965Z,3.00
2023-05-14T11:15:16.983Z,2.90
2023-05-14T11:16:23.318Z,2.90
2023-05-14T11:17:17.076Z,2.90
2023-05-14T11:18:17.040Z,2.70
2023-05-14T11:19:16.982Z,2.90
2023-05-14T11:20:16.948Z,3.00
2023-05-14T11:21:16.970Z,3.00
2023-05-14T11:22:16.892Z,3.10
2023-05-14T11:23:16.892Z,3.10
2023-05-14T11:24:16.881Z,2.90
2023-05-14T11:25:16.900Z,2.40
2023-05-14T11:26:17.875Z,2.10
2023-05-14T11:27:16.842Z,2.80
2023-05-14T11:28:16.915Z,3.10
2023-05-14T11:29:16.834Z,2.80
2023-05-14T11:30:16.905Z,2.50
2023-05-14T11:31:16.870Z,2.60
2023-05-14T11:32:16.820Z,2.50
2023-05-14T11:33:16.833Z,2.50
2023-05-14T11:34:16.801Z,2.30
2023-05-14T11:35:16.769Z,2.30
2023-05-14T11:36:16.761Z,2.40
2023-05-14T11:37:16.743Z,2.20
2023-05-14T11:38:16.761Z,2.50
2023-05-14T11:39:16.738Z,2.20
2023-05-14T11:40:16.887Z,2.70
2023-05-14T11:41:16.693Z,2.70
2023-05-14T11:42:16.697Z,2.80
2023-05-14T11:43:16.671Z,2.60
2023-05-14T11:44:16.748Z,2.30
2023-05-14T11:45:16.643Z,2.60
2023-05-14T11:46:16.671Z,2.20
2023-05-14T11:47:16.633Z,2.00
2023-05-14T11:48:16.645Z,2.30
2023-05-14T11:49:16.609Z,2.30
2023-05-14T11:50:16.650Z,1.90
2023-05-14T11:51:16.596Z,2.00
2023-05-14T11:52:16.617Z,2.40
2023-05-14T11:53:16.569Z,2.30
2023-05-14T11:54:16.794Z,2.40
2023-05-14T11:55:16.537Z,2.40
2023-05-14T11:56:16.542Z,2.40
2023-05-14T11:57:16.548Z,2.50
2023-05-14T11:58:16.527Z,2.60
2023-05-14T11:59:16.516Z,2.60
2023-05-14T12:00:16.500Z,3.20
2023-05-14T12:01:16.481Z,3.00
2023-05-14T12:02:16.534Z,2.70
2023-05-14T12:03:16.792Z,3.00
2023-05-14T12:04:16.485Z,3.20
2023-05-14T12:05:16.436Z,3.20
2023-05-14T12:06:16.454Z,3.30
2023-05-14T12:07:16.455Z,3.20
2023-05-14T12:08:16.654Z,3.20
2023-05-14T12:09:16.401Z,3.10
2023-05-14T12:10:16.407Z,3.00
2023-05-14T12:11:16.395Z,2.90
2023-05-14T12:12:16.425Z,3.00
2023-05-14T12:13:16.352Z,2.90
2023-05-14T12:14:16.418Z,3.00
2023-05-14T12:15:16.326Z,2.60
2023-05-14T12:16:16.384Z,3.00
2023-05-14T12:17:16.308Z,3.10
2023-05-14T12:18:24.056Z,2.90
2023-05-14T12:19:16.318Z,3.00
2023-05-14T12:20:16.341Z,2.90
2023-05-14T12:21:16.332Z,3.20
2023-05-14T12:22:16.326Z,2.90
2023-05-14T12:23:16.311Z,3.10
2023-05-14T12:24:16.246Z,2.60
2023-05-14T12:25:16.312Z,2.40
2023-05-14T12:26:16.246Z,2.30
2023-05-14T12:27:16.328Z,2.60
2023-05-14T12:28:16.202Z,2.80
2023-05-14T12:29:16.183Z,2.80
2023-05-14T12:30:21.939Z,2.40
2023-05-14T12:31:16.203Z,2.40
2023-05-14T12:32:16.150Z,2.70
2023-05-14T12:33:16.239Z,2.70
2023-05-14T12:34:16.201Z,2.70
2023-05-14T12:35:16.165Z,2.50
2023-05-14T12:36:21.733Z,2.30
2023-05-14T12:37:16.153Z,2.60
2023-05-14T12:38:16.122Z,2.20
2023-05-14T12:39:16.175Z,2.60
2023-05-14T12:40:16.128Z,2.70
2023-05-14T12:41:16.137Z,2.40
2023-05-14T12:42:16.053Z,2.70
2023-05-14T12:43:16.055Z,2.50
2023-05-14T12:44:16.044Z,2.50
2023-05-14T12:45:16.013Z,2.70
2023-05-14T12:46:16.030Z,2.70
2023-05-14T12:47:16.084Z,2.80
2023-05-14T12:48:16.163Z,2.60
2023-05-14T12:49:15.987Z,2.80
2023-05-14T12:50:15.980Z,2.30
2023-05-14T12:51:15.986Z,2.40
2023-05-14T12:53:15.979Z,3.00
2023-05-14T12:54:16.041Z,2.80
2023-05-14T12:55:15.913Z,2.50
2023-05-14T12:56:15.919Z,2.70
2023-05-14T12:57:15.912Z,2.40
2023-05-14T12:58:15.898Z,2.30
2023-05-14T12:59:15.891Z,2.80
2023-05-14T13:00:15.917Z,2.70
2023-05-14T13:01:15.899Z,2.70
2023-05-14T13:02:17.355Z,2.50
2023-05-14T13:03:15.942Z,2.50
2023-05-14T13:04:15.861Z,2.60
2023-05-14T13:05:15.807Z,2.70
2023-05-14T13:06:15.800Z,2.40
2023-05-14T13:07:15.805Z,2.40
2023-05-14T13:08:15.781Z,2.60
2023-05-14T13:09:15.777Z,2.50
2023-05-14T13:10:15.761Z,2.80
2023-05-14T13:11:15.756Z,2.50
2023-05-14T13:12:15.751Z,2.90
2023-05-14T13:13:15.726Z,2.50
2023-05-14T13:14:15.729Z,2.70
2023-05-14T13:15:15.834Z,2.30
2023-05-14T13:16:15.746Z,2.20
2023-05-14T13:17:15.731Z,2.10
2023-05-14T13:18:15.672Z,2.40
2023-05-14T13:19:15.839Z,2.20